sensor_id;sensor_type;location;lat;lon;timestamp;temperature;humidity
3868;DHT22;1949;48.152;11.528;2023-02-28T00:01:28;7.10;37.60
3868;DHT22;1949;48.152;11.528;2023-02-28T00:03:53;7.20;37.70
3868;DHT22;1949;48.152;11.528;2023-02-28T00:06:19;7.20;37.70
3868;DHT22;1949;48.152;11.528;2023-02-28T00:08:46;7.10;37.60
3868;DHT22;1949;48.152;11.528;2023-02-28T00:11:14;7.10;37.70
3868;DHT22;1949;48.152;11.528;2023-02-28T00:13:43;7.10;37.70
3868;DHT22;1949;48.152;11.528;2023-02-28T00:16:14;7.10;37.60
3868;DHT22;1949;48.152;11.528;2023-02-28T00:18:41;7.10;37.50
3868;DHT22;1949;48.152;11.528;2023-02-28T00:21:11;7.10;37.60
3868;DHT22;1949;48.152;11.528;2023-02-28T00:23:38;7.00;37.50
3868;DHT22;1949;48.152;11.528;2023-02-28T00:26:05;7.00;37.60
3868;DHT22;1949;48.152;11.528;2023-02-28T00:28:31;7.00;37.60
3868;DHT22;1949;48.152;11.528;2023-02-28T00:30:57;7.00;37.60
3868;DHT22;1949;48.152;11.528;2023-02-28T00:33:23;7.00;37.50
3868;DHT22;1949;48.152;11.528;2023-02-28T00:36:07;7.00;37.60
3868;DHT22;1949;48.152;11.528;2023-02-28T00:38:33;7.00;37.60
3868;DHT22;1949;48.152;11.528;2023-02-28T00:41:01;7.00;37.60
3868;DHT22;1949;48.152;11.528;2023-02-28T00:43:34;7.10;37.70
3868;DHT22;1949;48.152;11.528;2023-02-28T00:46:02;7.10;37.70
3868;DHT22;1949;48.152;11.528;2023-02-28T00:48:30;7.00;37.50
3868;DHT22;1949;48.152;11.528;2023-02-28T00:50:56;7.00;37.60
3868;DHT22;1949;48.152;11.528;2023-02-28T00:53:23;7.00;38.20
3868;DHT22;1949;48.152;11.528;2023-02-28T00:55:50;7.10;37.70
3868;DHT22;1949;48.152;11.528;2023-02-28T00:58:16;7.10;37.60
3868;DHT22;1949;48.152;11.528;2023-02-28T01:00:47;7.10;37.60
3868;DHT22;1949;48.152;11.528;2023-02-28T01:03:37;7.20;37.70
3868;DHT22;1949;48.152;11.528;2023-02-28T01:06:04;7.10;37.80
3868;DHT22;1949;48.152;11.528;2023-02-28T01:08:34;7.10;37.80
3868;DHT22;1949;48.152;11.528;2023-02-28T01:11:11;7.10;37.60
3868;DHT22;1949;48.152;11.528;2023-02-28T01:13:44;7.10;37.50
3868;DHT22;1949;48.152;11.528;2023-02-28T01:16:12;7.10;37.70
3868;DHT22;1949;48.152;11.528;2023-02-28T01:18:42;7.00;37.70
3868;DHT22;1949;48.152;11.528;2023-02-28T01:21:14;7.00;37.60
3868;DHT22;1949;48.152;11.528;2023-02-28T01:23:41;7.00;37.50
3868;DHT22;1949;48.152;11.528;2023-02-28T01:26:20;7.00;37.60
3868;DHT22;1949;48.152;11.528;2023-02-28T01:28:47;7.00;37.60
3868;DHT22;1949;48.152;11.528;2023-02-28T01:31:13;7.10;37.70
3868;DHT22;1949;48.152;11.528;2023-02-28T01:33:40;7.00;37.70
3868;DHT22;1949;48.152;11.528;2023-02-28T01:36:12;7.00;37.80
3868;DHT22;1949;48.152;11.528;2023-02-28T01:38:38;7.00;37.70
3868;DHT22;1949;48.152;11.528;2023-02-28T01:41:05;7.10;37.70
3868;DHT22;1949;48.152;11.528;2023-02-28T01:46:10;7.00;37.50
3868;DHT22;1949;48.152;11.528;2023-02-28T01:48:40;7.00;37.60
3868;DHT22;1949;48.152;11.528;2023-02-28T01:51:15;7.00;37.50
3868;DHT22;1949;48.152;11.528;2023-02-28T01:53:53;7.00;37.50
3868;DHT22;1949;48.152;11.528;2023-02-28T01:56:26;7.00;37.60
3868;DHT22;1949;48.152;11.528;2023-02-28T01:58:53;7.10;37.70
3868;DHT22;1949;48.152;11.528;2023-02-28T02:01:22;7.00;37.60
3868;DHT22;1949;48.152;11.528;2023-02-28T02:03:53;7.00;37.60
3868;DHT22;1949;48.152;11.528;2023-02-28T02:06:41;7.00;37.60
3868;DHT22;1949;48.152;11.528;2023-02-28T02:09:08;6.90;37.60
3868;DHT22;1949;48.152;11.528;2023-02-28T02:11:34;6.90;37.60
3868;DHT22;1949;48.152;11.528;2023-02-28T02:14:21;6.90;37.70
3868;DHT22;1949;48.152;11.528;2023-02-28T02:36:13;6.90;37.60
3868;DHT22;1949;48.152;11.528;2023-02-28T02:38:54;6.80;37.60
3868;DHT22;1949;48.152;11.528;2023-02-28T02:41:45;6.80;37.60
3868;DHT22;1949;48.152;11.528;2023-02-28T02:44:36;6.80;37.70
3868;DHT22;1949;48.152;11.528;2023-02-28T02:47:11;6.80;37.70
3868;DHT22;1949;48.152;11.528;2023-02-28T02:49:50;6.80;37.70
3868;DHT22;1949;48.152;11.528;2023-02-28T02:52:22;6.80;37.80
3868;DHT22;1949;48.152;11.528;2023-02-28T02:54:52;6.80;37.80
3868;DHT22;1949;48.152;11.528;2023-02-28T02:57:34;7.00;37.90
3868;DHT22;1949;48.152;11.528;2023-02-28T03:00:02;6.80;37.60
3868;DHT22;1949;48.152;11.528;2023-02-28T03:02:32;6.80;37.80
3868;DHT22;1949;48.152;11.528;2023-02-28T03:05:12;6.80;38.30
3868;DHT22;1949;48.152;11.528;2023-02-28T03:07:45;6.80;37.80
3868;DHT22;1949;48.152;11.528;2023-02-28T03:14:00;6.70;37.70
3868;DHT22;1949;48.152;11.528;2023-02-28T03:20:18;6.70;37.70
3868;DHT22;1949;48.152;11.528;2023-02-28T03:23:42;6.70;37.80
3868;DHT22;1949;48.152;11.528;2023-02-28T03:26:23;6.70;37.90
3868;DHT22;1949;48.152;11.528;2023-02-28T03:29:13;6.70;37.80
3868;DHT22;1949;48.152;11.528;2023-02-28T03:31:54;6.60;37.70
3868;DHT22;1949;48.152;11.528;2023-02-28T03:34:31;6.60;37.80
3868;DHT22;1949;48.152;11.528;2023-02-28T03:37:03;6.60;37.90
3868;DHT22;1949;48.152;11.528;2023-02-28T03:39:53;6.60;38.00
3868;DHT22;1949;48.152;11.528;2023-02-28T03:42:26;6.70;38.00
3868;DHT22;1949;48.152;11.528;2023-02-28T03:45:00;6.70;38.00
3868;DHT22;1949;48.152;11.528;2023-02-28T03:53:08;6.70;37.80
3868;DHT22;1949;48.152;11.528;2023-02-28T03:55:43;6.60;37.80
3868;DHT22;1949;48.152;11.528;2023-02-28T04:01:09;6.60;37.90
3868;DHT22;1949;48.152;11.528;2023-02-28T04:03:39;6.60;38.00
3868;DHT22;1949;48.152;11.528;2023-02-28T04:06:08;6.50;37.90
3868;DHT22;1949;48.152;11.528;2023-02-28T04:08:39;6.60;38.10
3868;DHT22;1949;48.152;11.528;2023-02-28T04:11:36;6.60;38.10
3868;DHT22;1949;48.152;11.528;2023-02-28T04:14:07;6.60;38.10
3868;DHT22;1949;48.152;11.528;2023-02-28T04:16:44;6.60;38.10
3868;DHT22;1949;48.152;11.528;2023-02-28T04:19:11;6.60;38.10
3868;DHT22;1949;48.152;11.528;2023-02-28T04:21:48;6.60;38.10
3868;DHT22;1949;48.152;11.528;2023-02-28T04:24:19;6.60;38.10
3868;DHT22;1949;48.152;11.528;2023-02-28T04:26:49;6.60;38.10
3868;DHT22;1949;48.152;11.528;2023-02-28T04:29:26;6.60;38.10
3868;DHT22;1949;48.152;11.528;2023-02-28T04:31:53;6.60;38.10
3868;DHT22;1949;48.152;11.528;2023-02-28T04:34:22;6.60;38.00
3868;DHT22;1949;48.152;11.528;2023-02-28T04:36:48;6.60;38.10
3868;DHT22;1949;48.152;11.528;2023-02-28T04:39:17;6.60;38.10
3868;DHT22;1949;48.152;11.528;2023-02-28T04:41:44;6.70;38.20
3868;DHT22;1949;48.152;11.528;2023-02-28T04:44:10;6.60;38.10
3868;DHT22;1949;48.152;11.528;2023-02-28T04:46:36;6.60;38.00
3868;DHT22;1949;48.152;11.528;2023-02-28T04:49:02;6.60;38.10
3868;DHT22;1949;48.152;11.528;2023-02-28T04:51:28;6.70;38.30
3868;DHT22;1949;48.152;11.528;2023-02-28T04:53:58;6.60;38.20
3868;DHT22;1949;48.152;11.528;2023-02-28T04:56:25;6.60;38.30
3868;DHT22;1949;48.152;11.528;2023-02-28T04:58:52;6.60;38.30
3868;DHT22;1949;48.152;11.528;2023-02-28T05:01:26;6.70;38.30
3868;DHT22;1949;48.152;11.528;2023-02-28T05:04:01;6.70;38.40
3868;DHT22;1949;48.152;11.528;2023-02-28T05:06:30;6.70;38.30
3868;DHT22;1949;48.152;11.528;2023-02-28T05:08:58;6.70;38.30
3868;DHT22;1949;48.152;11.528;2023-02-28T05:11:31;6.70;38.40
3868;DHT22;1949;48.152;11.528;2023-02-28T05:14:13;6.70;38.20
3868;DHT22;1949;48.152;11.528;2023-02-28T05:16:42;6.70;38.20
3868;DHT22;1949;48.152;11.528;2023-02-28T05:19:09;6.70;38.30
3868;DHT22;1949;48.152;11.528;2023-02-28T05:21:38;6.70;38.30
3868;DHT22;1949;48.152;11.528;2023-02-28T05:24:06;6.70;38.30
3868;DHT22;1949;48.152;11.528;2023-02-28T05:26:40;6.70;38.30
3868;DHT22;1949;48.152;11.528;2023-02-28T05:29:06;6.70;38.30
3868;DHT22;1949;48.152;11.528;2023-02-28T05:31:38;6.70;38.20
3868;DHT22;1949;48.152;11.528;2023-02-28T05:34:04;6.60;38.20
3868;DHT22;1949;48.152;11.528;2023-02-28T05:36:33;6.60;38.10
3868;DHT22;1949;48.152;11.528;2023-02-28T05:39:01;6.60;38.30
3868;DHT22;1949;48.152;11.528;2023-02-28T05:41:28;6.60;38.30
3868;DHT22;1949;48.152;11.528;2023-02-28T05:44:00;6.70;38.30
3868;DHT22;1949;48.152;11.528;2023-02-28T05:46:28;6.60;38.40
3868;DHT22;1949;48.152;11.528;2023-02-28T05:49:04;6.60;38.50
3868;DHT22;1949;48.152;11.528;2023-02-28T05:51:31;6.60;38.60
3868;DHT22;1949;48.152;11.528;2023-02-28T05:54:02;6.60;38.50
3868;DHT22;1949;48.152;11.528;2023-02-28T05:56:29;6.70;38.50
3868;DHT22;1949;48.152;11.528;2023-02-28T05:59:03;6.70;38.50
3868;DHT22;1949;48.152;11.528;2023-02-28T06:01:47;6.70;38.60
3868;DHT22;1949;48.152;11.528;2023-02-28T06:04:25;6.70;38.30
3868;DHT22;1949;48.152;11.528;2023-02-28T06:06:58;6.70;38.40
3868;DHT22;1949;48.152;11.528;2023-02-28T06:09:26;6.70;38.50
3868;DHT22;1949;48.152;11.528;2023-02-28T06:11:53;6.70;38.50
3868;DHT22;1949;48.152;11.528;2023-02-28T06:14:23;6.70;38.50
3868;DHT22;1949;48.152;11.528;2023-02-28T06:16:50;6.70;38.50
3868;DHT22;1949;48.152;11.528;2023-02-28T06:19:16;6.70;38.40
3868;DHT22;1949;48.152;11.528;2023-02-28T06:21:43;6.70;38.50
3868;DHT22;1949;48.152;11.528;2023-02-28T06:24:10;6.70;38.50
3868;DHT22;1949;48.152;11.528;2023-02-28T06:26:46;6.70;38.40
3868;DHT22;1949;48.152;11.528;2023-02-28T06:29:12;6.70;38.50
3868;DHT22;1949;48.152;11.528;2023-02-28T06:31:43;6.80;38.60
3868;DHT22;1949;48.152;11.528;2023-02-28T06:34:13;6.80;38.50
3868;DHT22;1949;48.152;11.528;2023-02-28T06:36:41;6.80;38.60
3868;DHT22;1949;48.152;11.528;2023-02-28T06:39:14;6.80;38.50
3868;DHT22;1949;48.152;11.528;2023-02-28T06:41:40;6.80;38.50
3868;DHT22;1949;48.152;11.528;2023-02-28T06:44:17;6.80;38.70
3868;DHT22;1949;48.152;11.528;2023-02-28T06:46:47;6.80;38.70
3868;DHT22;1949;48.152;11.528;2023-02-28T06:49:14;6.80;38.50
3868;DHT22;1949;48.152;11.528;2023-02-28T06:51:43;6.90;38.50
3868;DHT22;1949;48.152;11.528;2023-02-28T06:54:11;6.90;38.50
3868;DHT22;1949;48.152;11.528;2023-02-28T06:56:37;6.90;38.30
3868;DHT22;1949;48.152;11.528;2023-02-28T06:59:05;6.80;38.20
3868;DHT22;1949;48.152;11.528;2023-02-28T07:01:31;6.60;38.20
3868;DHT22;1949;48.152;11.528;2023-02-28T07:04:02;6.50;38.30
3868;DHT22;1949;48.152;11.528;2023-02-28T07:06:27;6.50;38.30
3868;DHT22;1949;48.152;11.528;2023-02-28T07:08:59;6.50;38.30
3868;DHT22;1949;48.152;11.528;2023-02-28T07:11:27;6.40;39.00
3868;DHT22;1949;48.152;11.528;2023-02-28T07:13:58;6.50;38.70
3868;DHT22;1949;48.152;11.528;2023-02-28T07:16:25;6.60;38.80
3868;DHT22;1949;48.152;11.528;2023-02-28T07:18:55;6.60;38.80
3868;DHT22;1949;48.152;11.528;2023-02-28T07:21:22;6.70;38.70
3868;DHT22;1949;48.152;11.528;2023-02-28T07:23:48;6.60;38.40
3868;DHT22;1949;48.152;11.528;2023-02-28T07:26:16;6.70;38.50
3868;DHT22;1949;48.152;11.528;2023-02-28T07:28:44;6.70;38.50
3868;DHT22;1949;48.152;11.528;2023-02-28T07:31:12;6.60;38.50
3868;DHT22;1949;48.152;11.528;2023-02-28T07:33:40;6.70;38.60
3868;DHT22;1949;48.152;11.528;2023-02-28T07:36:09;6.70;39.10
3868;DHT22;1949;48.152;11.528;2023-02-28T07:38:42;6.70;38.50
3868;DHT22;1949;48.152;11.528;2023-02-28T07:41:09;6.70;38.60
3868;DHT22;1949;48.152;11.528;2023-02-28T07:43:35;6.70;38.50
3868;DHT22;1949;48.152;11.528;2023-02-28T07:46:05;6.70;38.60
3868;DHT22;1949;48.152;11.528;2023-02-28T07:48:32;6.60;38.50
3868;DHT22;1949;48.152;11.528;2023-02-28T07:50:58;6.70;38.60
3868;DHT22;1949;48.152;11.528;2023-02-28T07:53:27;6.70;38.50
3868;DHT22;1949;48.152;11.528;2023-02-28T07:55:57;6.70;38.70
3868;DHT22;1949;48.152;11.528;2023-02-28T07:58:25;6.70;38.70
3868;DHT22;1949;48.152;11.528;2023-02-28T08:00:52;6.70;38.60
3868;DHT22;1949;48.152;11.528;2023-02-28T08:03:20;6.70;38.50
3868;DHT22;1949;48.152;11.528;2023-02-28T08:05:48;6.70;38.60
3868;DHT22;1949;48.152;11.528;2023-02-28T08:08:15;6.70;38.70
3868;DHT22;1949;48.152;11.528;2023-02-28T08:10:42;6.70;38.60
3868;DHT22;1949;48.152;11.528;2023-02-28T08:13:08;6.70;38.50
3868;DHT22;1949;48.152;11.528;2023-02-28T08:15:34;6.70;38.60
3868;DHT22;1949;48.152;11.528;2023-02-28T08:18:00;6.70;38.60
3868;DHT22;1949;48.152;11.528;2023-02-28T08:20:26;6.80;38.70
3868;DHT22;1949;48.152;11.528;2023-02-28T08:22:52;6.80;38.70
3868;DHT22;1949;48.152;11.528;2023-02-28T08:25:18;6.80;38.70
3868;DHT22;1949;48.152;11.528;2023-02-28T08:27:45;6.90;38.70
3868;DHT22;1949;48.152;11.528;2023-02-28T08:30:12;6.90;38.60
3868;DHT22;1949;48.152;11.528;2023-02-28T08:32:39;6.90;38.60
3868;DHT22;1949;48.152;11.528;2023-02-28T08:35:06;6.90;38.50
3868;DHT22;1949;48.152;11.528;2023-02-28T08:37:32;6.90;38.60
3868;DHT22;1949;48.152;11.528;2023-02-28T08:40:00;6.90;38.50
3868;DHT22;1949;48.152;11.528;2023-02-28T08:42:26;6.90;38.50
3868;DHT22;1949;48.152;11.528;2023-02-28T08:44:54;6.90;38.60
3868;DHT22;1949;48.152;11.528;2023-02-28T08:47:20;6.90;38.70
3868;DHT22;1949;48.152;11.528;2023-02-28T08:49:46;7.00;38.70
3868;DHT22;1949;48.152;11.528;2023-02-28T08:52:11;7.10;38.60
3868;DHT22;1949;48.152;11.528;2023-02-28T08:54:37;7.00;38.50
3868;DHT22;1949;48.152;11.528;2023-02-28T08:57:03;7.00;38.60
3868;DHT22;1949;48.152;11.528;2023-02-28T08:59:29;7.10;38.60
3868;DHT22;1949;48.152;11.528;2023-02-28T09:02:01;7.00;38.50
3868;DHT22;1949;48.152;11.528;2023-02-28T09:04:27;7.00;38.60
3868;DHT22;1949;48.152;11.528;2023-02-28T09:06:56;7.00;38.50
3868;DHT22;1949;48.152;11.528;2023-02-28T09:09:22;7.00;38.50
3868;DHT22;1949;48.152;11.528;2023-02-28T09:11:49;7.10;38.50
3868;DHT22;1949;48.152;11.528;2023-02-28T09:14:15;7.00;38.50
3868;DHT22;1949;48.152;11.528;2023-02-28T09:16:42;7.00;38.60
3868;DHT22;1949;48.152;11.528;2023-02-28T09:19:11;7.00;38.60
3868;DHT22;1949;48.152;11.528;2023-02-28T09:21:37;7.00;38.60
3868;DHT22;1949;48.152;11.528;2023-02-28T09:24:03;7.10;38.60
3868;DHT22;1949;48.152;11.528;2023-02-28T09:26:29;7.10;38.60
3868;DHT22;1949;48.152;11.528;2023-02-28T09:28:56;7.10;38.50
3868;DHT22;1949;48.152;11.528;2023-02-28T09:31:28;7.10;38.30
3868;DHT22;1949;48.152;11.528;2023-02-28T09:33:55;7.00;38.30
3868;DHT22;1949;48.152;11.528;2023-02-28T09:36:26;6.90;38.50
3868;DHT22;1949;48.152;11.528;2023-02-28T09:38:53;6.90;38.50
3868;DHT22;1949;48.152;11.528;2023-02-28T09:41:24;6.90;38.50
3868;DHT22;1949;48.152;11.528;2023-02-28T09:43:55;7.00;38.60
3868;DHT22;1949;48.152;11.528;2023-02-28T09:46:39;6.90;38.50
3868;DHT22;1949;48.152;11.528;2023-02-28T09:49:17;7.00;38.40
3868;DHT22;1949;48.152;11.528;2023-02-28T09:52:09;6.90;38.90
3868;DHT22;1949;48.152;11.528;2023-02-28T09:54:35;6.80;38.20
3868;DHT22;1949;48.152;11.528;2023-02-28T09:57:19;6.70;38.30
3868;DHT22;1949;48.152;11.528;2023-02-28T10:00:06;6.70;39.10
3868;DHT22;1949;48.152;11.528;2023-02-28T10:05:41;6.70;38.60
3868;DHT22;1949;48.152;11.528;2023-02-28T10:08:18;6.70;38.80
3868;DHT22;1949;48.152;11.528;2023-02-28T10:10:50;6.80;38.90
3868;DHT22;1949;48.152;11.528;2023-02-28T10:13:53;6.90;38.90
3868;DHT22;1949;48.152;11.528;2023-02-28T10:16:49;7.00;38.90
3868;DHT22;1949;48.152;11.528;2023-02-28T10:24:32;7.20;38.90
3868;DHT22;1949;48.152;11.528;2023-02-28T10:27:06;7.30;38.90
3868;DHT22;1949;48.152;11.528;2023-02-28T10:29:35;7.40;38.80
3868;DHT22;1949;48.152;11.528;2023-02-28T10:32:02;7.40;38.70
3868;DHT22;1949;48.152;11.528;2023-02-28T10:34:35;7.40;38.80
3868;DHT22;1949;48.152;11.528;2023-02-28T10:37:03;7.50;38.80
3868;DHT22;1949;48.152;11.528;2023-02-28T10:39:44;7.50;38.80
3868;DHT22;1949;48.152;11.528;2023-02-28T10:42:28;7.60;38.70
3868;DHT22;1949;48.152;11.528;2023-02-28T10:45:12;7.60;38.70
3868;DHT22;1949;48.152;11.528;2023-02-28T10:48:24;7.70;38.80
3868;DHT22;1949;48.152;11.528;2023-02-28T10:50:53;7.70;38.70
3868;DHT22;1949;48.152;11.528;2023-02-28T10:53:32;7.70;38.60
3868;DHT22;1949;48.152;11.528;2023-02-28T11:01:46;7.80;38.60
3868;DHT22;1949;48.152;11.528;2023-02-28T11:04:35;7.80;38.60
3868;DHT22;1949;48.152;11.528;2023-02-28T11:07:09;7.90;38.60
3868;DHT22;1949;48.152;11.528;2023-02-28T11:09:45;7.90;38.50
3868;DHT22;1949;48.152;11.528;2023-02-28T11:15:02;7.90;38.40
3868;DHT22;1949;48.152;11.528;2023-02-28T11:17:33;7.80;38.40
3868;DHT22;1949;48.152;11.528;2023-02-28T11:20:05;7.80;38.30
3868;DHT22;1949;48.152;11.528;2023-02-28T11:22:38;7.80;38.40
3868;DHT22;1949;48.152;11.528;2023-02-28T11:25:19;7.80;38.50
3868;DHT22;1949;48.152;11.528;2023-02-28T11:27:52;7.80;38.60
3868;DHT22;1949;48.152;11.528;2023-02-28T11:30:30;7.90;38.60
3868;DHT22;1949;48.152;11.528;2023-02-28T11:32:57;7.90;38.50
3868;DHT22;1949;48.152;11.528;2023-02-28T11:35:38;7.90;38.60
3868;DHT22;1949;48.152;11.528;2023-02-28T11:38:12;8.10;38.40
3868;DHT22;1949;48.152;11.528;2023-02-28T11:43:23;8.00;38.50
3868;DHT22;1949;48.152;11.528;2023-02-28T11:48:49;8.00;38.50
3868;DHT22;1949;48.152;11.528;2023-02-28T11:51:23;8.10;38.70
3868;DHT22;1949;48.152;11.528;2023-02-28T11:56:37;8.40;38.70
3868;DHT22;1949;48.152;11.528;2023-02-28T12:16:33;9.00;38.40
3868;DHT22;1949;48.152;11.528;2023-02-28T12:19:20;9.00;38.40
3868;DHT22;1949;48.152;11.528;2023-02-28T12:22:16;9.10;38.40
3868;DHT22;1949;48.152;11.528;2023-02-28T12:25:08;9.10;38.30
3868;DHT22;1949;48.152;11.528;2023-02-28T12:27:47;9.20;38.40
3868;DHT22;1949;48.152;11.528;2023-02-28T12:30:16;9.20;38.50
3868;DHT22;1949;48.152;11.528;2023-02-28T12:33:03;9.20;38.20
3868;DHT22;1949;48.152;11.528;2023-02-28T12:38:43;9.20;38.30
3868;DHT22;1949;48.152;11.528;2023-02-28T12:41:17;9.40;38.40
3868;DHT22;1949;48.152;11.528;2023-02-28T12:43:50;9.50;38.60
3868;DHT22;1949;48.152;11.528;2023-02-28T12:46:23;9.60;38.60
3868;DHT22;1949;48.152;11.528;2023-02-28T12:48:55;9.70;38.30
3868;DHT22;1949;48.152;11.528;2023-02-28T12:51:23;9.90;38.50
3868;DHT22;1949;48.152;11.528;2023-02-28T12:54:16;10.10;37.60
3868;DHT22;1949;48.152;11.528;2023-02-28T12:57:11;10.40;37.60
3868;DHT22;1949;48.152;11.528;2023-02-28T13:06:10;10.90;37.10
3868;DHT22;1949;48.152;11.528;2023-02-28T13:11:00;11.40;36.90
3868;DHT22;1949;48.152;11.528;2023-02-28T13:13:30;11.50;36.70
3868;DHT22;1949;48.152;11.528;2023-02-28T13:16:10;11.50;36.50
3868;DHT22;1949;48.152;11.528;2023-02-28T13:18:45;11.40;36.30
3868;DHT22;1949;48.152;11.528;2023-02-28T13:21:42;11.40;36.20
3868;DHT22;1949;48.152;11.528;2023-02-28T13:24:09;11.30;36.20
3868;DHT22;1949;48.152;11.528;2023-02-28T13:34:33;11.30;36.60
3868;DHT22;1949;48.152;11.528;2023-02-28T13:39:59;11.40;36.30
3868;DHT22;1949;48.152;11.528;2023-02-28T13:42:34;11.50;36.40
3868;DHT22;1949;48.152;11.528;2023-02-28T13:50:36;11.20;35.90
3868;DHT22;1949;48.152;11.528;2023-02-28T13:56:10;11.00;36.00
3868;DHT22;1949;48.152;11.528;2023-02-28T14:07:00;10.80;36.40
3868;DHT22;1949;48.152;11.528;2023-02-28T14:09:38;10.70;36.40
3868;DHT22;1949;48.152;11.528;2023-02-28T14:32:47;10.60;36.40
3868;DHT22;1949;48.152;11.528;2023-02-28T14:35:45;10.50;36.30
3868;DHT22;1949;48.152;11.528;2023-02-28T14:38:23;10.50;36.30
3868;DHT22;1949;48.152;11.528;2023-02-28T14:40:52;10.50;36.30
3868;DHT22;1949;48.152;11.528;2023-02-28T14:43:23;10.40;36.20
3868;DHT22;1949;48.152;11.528;2023-02-28T14:45:59;10.40;36.30
3868;DHT22;1949;48.152;11.528;2023-02-28T14:48:26;10.40;36.30
3868;DHT22;1949;48.152;11.528;2023-02-28T14:50:58;10.40;36.40
3868;DHT22;1949;48.152;11.528;2023-02-28T14:53:30;10.40;36.30
3868;DHT22;1949;48.152;11.528;2023-02-28T14:55:56;10.40;36.30
3868;DHT22;1949;48.152;11.528;2023-02-28T14:58:26;10.40;36.40
3868;DHT22;1949;48.152;11.528;2023-02-28T15:00:56;10.40;36.40
3868;DHT22;1949;48.152;11.528;2023-02-28T15:05:58;10.90;37.10
3868;DHT22;1949;48.152;11.528;2023-02-28T15:08:36;11.20;37.00
3868;DHT22;1949;48.152;11.528;2023-02-28T15:11:12;11.50;36.70
3868;DHT22;1949;48.152;11.528;2023-02-28T15:13:50;11.80;36.60
3868;DHT22;1949;48.152;11.528;2023-02-28T15:16:39;12.00;36.50
3868;DHT22;1949;48.152;11.528;2023-02-28T15:21:42;12.30;36.00
3868;DHT22;1949;48.152;11.528;2023-02-28T15:24:19;12.40;35.90
3868;DHT22;1949;48.152;11.528;2023-02-28T15:27:01;12.40;35.80
3868;DHT22;1949;48.152;11.528;2023-02-28T15:29:41;12.50;35.60
3868;DHT22;1949;48.152;11.528;2023-02-28T15:32:44;12.40;35.40
3868;DHT22;1949;48.152;11.528;2023-02-28T15:35:41;12.30;35.50
3868;DHT22;1949;48.152;11.528;2023-02-28T15:38:23;12.20;35.60
3868;DHT22;1949;48.152;11.528;2023-02-28T15:40:57;12.10;35.40
3868;DHT22;1949;48.152;11.528;2023-02-28T15:43:38;12.10;35.40
3868;DHT22;1949;48.152;11.528;2023-02-28T15:46:15;11.90;35.50
3868;DHT22;1949;48.152;11.528;2023-02-28T15:49:00;11.80;35.40
3868;DHT22;1949;48.152;11.528;2023-02-28T15:51:38;11.70;35.50
3868;DHT22;1949;48.152;11.528;2023-02-28T15:54:15;11.60;35.50
3868;DHT22;1949;48.152;11.528;2023-02-28T15:56:52;11.40;35.60
3868;DHT22;1949;48.152;11.528;2023-02-28T15:59:28;11.30;35.60
3868;DHT22;1949;48.152;11.528;2023-02-28T16:02:15;11.20;35.80
3868;DHT22;1949;48.152;11.528;2023-02-28T16:07:30;11.00;35.80
3868;DHT22;1949;48.152;11.528;2023-02-28T16:09:55;11.00;35.90
3868;DHT22;1949;48.152;11.528;2023-02-28T16:12:30;10.90;35.80
3868;DHT22;1949;48.152;11.528;2023-02-28T16:14:58;10.90;35.90
3868;DHT22;1949;48.152;11.528;2023-02-28T16:17:33;10.80;36.00
3868;DHT22;1949;48.152;11.528;2023-02-28T16:20:25;10.70;36.00
3868;DHT22;1949;48.152;11.528;2023-02-28T16:22:52;10.60;36.00
3868;DHT22;1949;48.152;11.528;2023-02-28T16:25:21;10.70;36.10
3868;DHT22;1949;48.152;11.528;2023-02-28T16:27:52;10.60;36.10
3868;DHT22;1949;48.152;11.528;2023-02-28T16:30:33;10.50;36.20
3868;DHT22;1949;48.152;11.528;2023-02-28T16:32:58;10.40;36.20
3868;DHT22;1949;48.152;11.528;2023-02-28T16:35:25;10.40;36.30
3868;DHT22;1949;48.152;11.528;2023-02-28T16:37:53;10.40;36.40
3868;DHT22;1949;48.152;11.528;2023-02-28T16:40:24;10.40;36.40
3868;DHT22;1949;48.152;11.528;2023-02-28T16:42:57;10.40;36.40
3868;DHT22;1949;48.152;11.528;2023-02-28T16:45:28;10.40;36.40
3868;DHT22;1949;48.152;11.528;2023-02-28T16:47:54;10.40;36.30
3868;DHT22;1949;48.152;11.528;2023-02-28T16:50:26;10.30;36.30
3868;DHT22;1949;48.152;11.528;2023-02-28T16:52:54;10.30;36.40
3868;DHT22;1949;48.152;11.528;2023-02-28T16:55:25;10.30;36.40
3868;DHT22;1949;48.152;11.528;2023-02-28T16:58:01;10.30;36.30
3868;DHT22;1949;48.152;11.528;2023-02-28T17:00:30;10.30;36.30
3868;DHT22;1949;48.152;11.528;2023-02-28T17:03:00;10.30;36.40
3868;DHT22;1949;48.152;11.528;2023-02-28T17:05:34;10.30;36.50
3868;DHT22;1949;48.152;11.528;2023-02-28T17:08:04;10.20;36.50
3868;DHT22;1949;48.152;11.528;2023-02-28T17:10:34;10.30;36.50
3868;DHT22;1949;48.152;11.528;2023-02-28T17:13:01;10.20;36.40
3868;DHT22;1949;48.152;11.528;2023-02-28T17:15:27;10.20;36.50
3868;DHT22;1949;48.152;11.528;2023-02-28T17:17:56;10.20;36.40
3868;DHT22;1949;48.152;11.528;2023-02-28T17:20:28;10.20;36.40
3868;DHT22;1949;48.152;11.528;2023-02-28T17:22:55;10.10;36.30
3868;DHT22;1949;48.152;11.528;2023-02-28T17:25:25;10.10;36.40
3868;DHT22;1949;48.152;11.528;2023-02-28T17:27:51;10.10;36.40
3868;DHT22;1949;48.152;11.528;2023-02-28T17:30:27;10.10;36.50
3868;DHT22;1949;48.152;11.528;2023-02-28T17:33:02;10.10;36.50
3868;DHT22;1949;48.152;11.528;2023-02-28T17:35:35;10.00;36.40
3868;DHT22;1949;48.152;11.528;2023-02-28T17:38:04;10.00;36.50
3868;DHT22;1949;48.152;11.528;2023-02-28T17:40:30;10.00;36.50
3868;DHT22;1949;48.152;11.528;2023-02-28T17:42:56;10.00;36.50
3868;DHT22;1949;48.152;11.528;2023-02-28T17:45:24;10.00;36.50
3868;DHT22;1949;48.152;11.528;2023-02-28T17:47:54;10.00;36.60
3868;DHT22;1949;48.152;11.528;2023-02-28T17:50:33;10.00;36.50
3868;DHT22;1949;48.152;11.528;2023-02-28T17:53:03;10.00;36.50
3868;DHT22;1949;48.152;11.528;2023-02-28T17:55:36;10.00;36.50
3868;DHT22;1949;48.152;11.528;2023-02-28T17:58:10;10.00;36.50
3868;DHT22;1949;48.152;11.528;2023-02-28T18:00:40;10.00;36.50
3868;DHT22;1949;48.152;11.528;2023-02-28T18:03:07;10.00;36.50
3868;DHT22;1949;48.152;11.528;2023-02-28T18:05:34;10.00;36.60
3868;DHT22;1949;48.152;11.528;2023-02-28T18:08:11;9.90;37.50
3868;DHT22;1949;48.152;11.528;2023-02-28T18:10:38;10.00;36.60
3868;DHT22;1949;48.152;11.528;2023-02-28T18:13:07;10.00;36.60
3868;DHT22;1949;48.152;11.528;2023-02-28T18:15:34;10.00;36.60
3868;DHT22;1949;48.152;11.528;2023-02-28T18:18:03;10.00;36.60
3868;DHT22;1949;48.152;11.528;2023-02-28T18:20:30;9.90;37.50
3868;DHT22;1949;48.152;11.528;2023-02-28T18:23:06;10.00;36.70
3868;DHT22;1949;48.152;11.528;2023-02-28T18:25:36;9.90;37.50
3868;DHT22;1949;48.152;11.528;2023-02-28T18:28:03;10.00;36.70
3868;DHT22;1949;48.152;11.528;2023-02-28T18:34:02;9.90;37.50
3868;DHT22;1949;48.152;11.528;2023-02-28T18:36:36;9.90;37.50
3868;DHT22;1949;48.152;11.528;2023-02-28T18:39:02;9.90;37.50
3868;DHT22;1949;48.152;11.528;2023-02-28T18:41:35;9.90;37.60
3868;DHT22;1949;48.152;11.528;2023-02-28T18:44:02;9.90;37.60
3868;DHT22;1949;48.152;11.528;2023-02-28T18:46:41;9.80;37.70
3868;DHT22;1949;48.152;11.528;2023-02-28T18:49:22;9.80;37.80
3868;DHT22;1949;48.152;11.528;2023-02-28T18:51:48;9.90;37.70
3868;DHT22;1949;48.152;11.528;2023-02-28T18:54:26;9.90;37.70
3868;DHT22;1949;48.152;11.528;2023-02-28T18:56:53;9.90;37.70
3868;DHT22;1949;48.152;11.528;2023-02-28T18:59:24;9.90;37.70
3868;DHT22;1949;48.152;11.528;2023-02-28T19:01:50;9.80;37.50